createdAt,value
2022-09-06T00:00:18.934Z,101765.64
2022-09-06T00:02:46.307Z,101762.80
2022-09-06T00:05:14.308Z,101762.63
2022-09-06T00:07:42.074Z,101767.19
2022-09-06T00:10:10.727Z,101767.34
2022-09-06T00:12:38.162Z,101761.80
2022-09-06T00:15:07.031Z,101760.45
2022-09-06T00:17:34.152Z,101756.38
2022-09-06T00:20:01.643Z,101757.27
2022-09-06T00:22:28.640Z,101756.86
2022-09-06T00:24:55.405Z,101754.76
2022-09-06T00:27:22.406Z,101753.66
2022-09-06T00:29:49.278Z,101752.39
2022-09-06T00:32:16.540Z,101749.36
2022-09-06T00:34:43.283Z,101749.67
2022-09-06T00:37:10.103Z,101748.45
2022-09-06T00:39:37.009Z,101753.04
2022-09-06T00:42:14.833Z,101750.52
2022-09-06T00:44:41.656Z,101747.79
2022-09-06T00:47:09.791Z,101751.73
2022-09-06T00:49:46.275Z,101752.89
2022-09-06T00:52:16.634Z,101751.97
2022-09-06T00:54:43.992Z,101747.65
2022-09-06T00:57:11.667Z,101749.19
2022-09-06T00:59:41.646Z,101748.64
2022-09-06T01:02:09.578Z,101750.95
2022-09-06T01:04:41.651Z,101754.13
2022-09-06T01:07:56.526Z,101751.30
2022-09-06T01:11:03.627Z,101747.17
2022-09-06T01:14:14.825Z,101744.11
2022-09-06T01:17:22.411Z,101745.29
2022-09-06T01:20:20.451Z,101746.30
2022-09-06T01:23:34.380Z,101744.65
2022-09-06T01:26:45.060Z,101744.42
2022-09-06T01:29:39.412Z,101747.70
2022-09-06T01:32:29.447Z,101745.75
2022-09-06T01:35:17.135Z,101745.06
2022-09-06T01:37:43.918Z,101744.08
2022-09-06T01:40:10.737Z,101740.27
2022-09-06T01:42:42.207Z,101736.52
2022-09-06T01:45:19.772Z,101732.70
2022-09-06T01:47:55.223Z,101729.40
2022-09-06T01:50:52.391Z,101730.55
2022-09-06T01:53:51.582Z,101730.41
2022-09-06T01:56:50.568Z,101733.08
2022-09-06T02:00:11.487Z,101736.55
2022-09-06T02:03:16.516Z,101728.80
2022-09-06T02:06:03.064Z,101733.27
2022-09-06T02:08:39.189Z,101730.18
2022-09-06T02:11:09.393Z,101736.38
2022-09-06T02:13:46.154Z,101731.36
2022-09-06T02:16:19.696Z,101728.67
2022-09-06T02:19:07.675Z,101723.20
2022-09-06T02:21:41.659Z,101723.55
2022-09-06T02:24:18.491Z,101718.73
2022-09-06T02:26:47.689Z,101717.98
2022-09-06T02:29:16.722Z,101716.98
2022-09-06T02:31:50.939Z,101717.07
2022-09-06T02:34:20.874Z,101719.84
2022-09-06T02:36:48.337Z,101718.85
2022-09-06T02:39:15.301Z,101721.40
2022-09-06T02:41:46.562Z,101716.99
2022-09-06T02:44:13.979Z,101713.35
2022-09-06T02:46:41.145Z,101707.94
2022-09-06T02:49:07.864Z,101715.63
2022-09-06T02:51:39.504Z,101717.85
2022-09-06T02:54:07.555Z,101715.05
2022-09-06T02:56:36.582Z,101708.98
2022-09-06T02:59:04.971Z,101707.50
2022-09-06T03:01:34.217Z,101706.91
2022-09-06T03:04:01.204Z,101711.98
2022-09-06T03:06:28.182Z,101714.52
2022-09-06T03:08:54.889Z,101721.20
2022-09-06T03:11:21.861Z,101722.67
2022-09-06T03:13:48.628Z,101722.57
2022-09-06T03:16:15.528Z,101717.41
2022-09-06T03:18:42.787Z,101722.52
2022-09-06T03:21:09.933Z,101719.14
2022-09-06T03:23:39.578Z,101711.52
2022-09-06T03:26:07.661Z,101709.42
2022-09-06T03:28:34.595Z,101714.90
2022-09-06T03:31:01.445Z,101717.30
2022-09-06T03:33:28.255Z,101717.86
2022-09-06T03:36:01.680Z,101709.70
2022-09-06T03:38:30.654Z,101706.34
2022-09-06T03:40:58.011Z,101705.94
2022-09-06T03:43:27.013Z,101703.71
2022-09-06T03:45:59.509Z,101705.64
2022-09-06T03:48:29.637Z,101709.35
2022-09-06T03:50:59.376Z,101709.61
2022-09-06T03:53:28.907Z,101711.34
2022-09-06T03:56:00.206Z,101710.25
2022-09-06T03:58:31.587Z,101709.17
2022-09-06T04:01:07.466Z,101703.11
2022-09-06T04:03:36.048Z,101703.77
2022-09-06T04:06:04.917Z,101702.10
2022-09-06T04:08:33.666Z,101693.04
2022-09-06T04:11:00.540Z,101694.59
2022-09-06T04:13:29.632Z,101696.88
2022-09-06T04:15:57.065Z,101695.96
2022-09-06T04:18:24.021Z,101697.58
2022-09-06T04:20:53.515Z,101699.06
2022-09-06T04:23:20.726Z,101699.95
2022-09-06T04:25:50.180Z,101699.66
2022-09-06T04:28:18.695Z,101697.14
2022-09-06T04:31:04.557Z,101694.94
2022-09-06T04:33:34.884Z,101692.30
2022-09-06T04:36:08.612Z,101691.56
2022-09-06T04:38:40.291Z,101686.61
2022-09-06T04:41:12.729Z,101679.71
2022-09-06T04:43:39.839Z,101679.70
2022-09-06T04:46:15.315Z,101685.19
2022-09-06T04:48:42.020Z,101682.89
2022-09-06T04:51:08.790Z,101681.46
2022-09-06T04:53:35.619Z,101683.20
2022-09-06T04:56:02.928Z,101679.55
2022-09-06T04:58:29.845Z,101681.89
2022-09-06T05:00:56.857Z,101678.88
2022-09-06T05:03:23.929Z,101679.42
2022-09-06T05:05:50.912Z,101681.96
2022-09-06T05:08:17.851Z,101683.59
2022-09-06T05:10:44.564Z,101678.86
2022-09-06T05:13:11.238Z,101675.00
2022-09-06T05:15:38.075Z,101672.20
2022-09-06T05:18:06.771Z,101676.84
2022-09-06T05:20:33.534Z,101676.38
2022-09-06T05:23:00.283Z,101675.02
2022-09-06T05:25:27.092Z,101677.00
2022-09-06T05:27:53.739Z,101676.21
2022-09-06T05:30:20.746Z,101676.98
2022-09-06T05:32:47.473Z,101679.28
2022-09-06T05:35:14.516Z,101679.86
2022-09-06T05:37:41.244Z,101676.64
2022-09-06T05:40:08.911Z,101679.64
2022-09-06T05:42:35.865Z,101681.14
2022-09-06T05:45:02.590Z,101675.77
2022-09-06T05:47:31.158Z,101678.56
2022-09-06T05:49:57.962Z,101676.14
2022-09-06T05:52:24.672Z,101683.17
2022-09-06T05:54:51.391Z,101684.66
2022-09-06T05:57:18.107Z,101684.39
2022-09-06T05:59:44.835Z,101680.84
2022-09-06T06:02:11.739Z,101674.90
2022-09-06T06:04:38.445Z,101669.83
2022-09-06T06:07:05.227Z,101657.70
2022-09-06T06:09:31.918Z,101650.46
2022-09-06T06:11:58.556Z,101647.58
2022-09-06T06:14:25.305Z,101645.75
2022-09-06T06:16:52.056Z,101648.70
2022-09-06T06:19:18.850Z,101658.94
2022-09-06T06:21:45.602Z,101661.27
2022-09-06T06:24:12.539Z,101666.33
2022-09-06T06:26:39.644Z,101665.16
2022-09-06T06:29:09.551Z,101663.91
2022-09-06T06:31:38.914Z,101662.92
2022-09-06T06:34:06.993Z,101660.90
2022-09-06T06:36:36.874Z,101662.38
2022-09-06T06:39:07.169Z,101665.15
2022-09-06T06:41:33.948Z,101667.40
2022-09-06T06:44:03.823Z,101662.80
2022-09-06T06:46:37.413Z,101660.14
2022-09-06T06:49:05.117Z,101654.92
2022-09-06T06:51:37.078Z,101649.44
2022-09-06T06:54:05.844Z,101650.02
2022-09-06T06:56:40.722Z,101646.61
2022-09-06T06:59:08.322Z,101646.33
2022-09-06T07:01:37.142Z,101643.97
2022-09-06T07:04:05.677Z,101633.06
2022-09-06T07:12:24.927Z,101636.08
2022-09-06T07:14:51.617Z,101635.98
2022-09-06T07:17:18.267Z,101639.63
2022-09-06T07:22:31.636Z,101646.76
2022-09-06T07:24:58.303Z,101648.48
2022-09-06T07:30:14.191Z,101653.92
2022-09-06T07:32:41.012Z,101651.86
2022-09-06T07:35:08.588Z,101652.76
2022-09-06T07:37:35.467Z,101652.28
2022-09-06T07:40:03.677Z,101647.90
2022-09-06T07:42:36.486Z,101647.02
2022-09-06T07:45:05.215Z,101648.27
2022-09-06T07:53:08.583Z,101636.73
2022-09-06T07:55:38.049Z,101635.52
2022-09-06T07:58:04.842Z,101639.40
2022-09-06T08:00:31.948Z,101639.91
2022-09-06T08:02:58.994Z,101638.83
2022-09-06T08:10:59.072Z,101638.34
2022-09-06T08:13:25.866Z,101636.22
2022-09-06T08:16:05.282Z,101638.71
2022-09-06T08:18:32.692Z,101649.36
2022-09-06T08:21:28.275Z,101651.88
2022-09-06T08:24:07.777Z,101658.27
2022-09-06T08:26:42.454Z,101655.25
2022-09-06T08:29:10.976Z,101653.11
2022-09-06T08:31:42.094Z,101659.70
2022-09-06T08:34:12.545Z,101657.37
2022-09-06T08:36:39.301Z,101654.17
2022-09-06T08:39:09.935Z,101650.61
2022-09-06T08:42:01.004Z,101645.81
2022-09-06T08:45:06.450Z,101640.30
2022-09-06T08:47:23.465Z,101639.77
2022-09-06T08:50:11.325Z,101636.13
2022-09-06T08:53:16.120Z,101631.89
2022-09-06T08:56:16.895Z,101624.83
2022-09-06T08:59:07.591Z,101628.27
2022-09-06T09:01:55.659Z,101624.95
2022-09-06T09:04:27.695Z,101614.65
2022-09-06T09:07:06.940Z,101614.61
2022-09-06T09:09:35.708Z,101618.45
2022-09-06T09:12:03.334Z,101617.08
2022-09-06T09:14:36.527Z,101614.27
2022-09-06T09:17:29.277Z,101620.43
2022-09-06T09:19:56.884Z,101617.23
2022-09-06T09:22:25.832Z,101611.67
2022-09-06T09:24:54.572Z,101608.23
2022-09-06T09:27:28.739Z,101599.45
2022-09-06T09:32:45.889Z,101597.27
2022-09-06T09:35:40.782Z,101597.91
2022-09-06T09:38:19.306Z,101590.55
2022-09-06T09:40:56.129Z,101581.88
2022-09-06T09:43:25.830Z,101579.08
2022-09-06T09:46:22.699Z,101577.01
2022-09-06T09:49:27.540Z,101574.22
2022-09-06T09:52:13.013Z,101564.34
2022-09-06T09:54:44.979Z,101566.29
2022-09-06T09:57:18.463Z,101562.63
2022-09-06T09:59:58.705Z,101556.61
2022-09-06T10:02:35.880Z,101556.27
2022-09-06T10:05:21.448Z,101551.58
2022-09-06T10:07:53.441Z,101551.33
2022-09-06T10:10:31.443Z,101551.38
2022-09-06T10:13:21.509Z,101555.05
2022-09-06T10:15:51.960Z,101555.96
2022-09-06T10:18:37.058Z,101556.44
2022-09-06T10:21:24.071Z,101559.30
2022-09-06T10:24:30.637Z,101556.40
2022-09-06T10:27:02.461Z,101550.64
2022-09-06T10:29:56.056Z,101546.73
2022-09-06T10:33:06.335Z,101542.05
2022-09-06T10:35:40.039Z,101536.14
2022-09-06T10:38:35.674Z,101534.08
2022-09-06T10:41:42.549Z,101527.53
2022-09-06T10:44:24.359Z,101522.13
2022-09-06T10:47:11.808Z,101521.96
2022-09-06T10:49:43.983Z,101516.47
2022-09-06T10:52:25.609Z,101519.69
2022-09-06T10:55:02.195Z,101518.81
2022-09-06T11:00:49.364Z,101519.82
2022-09-06T11:04:01.904Z,101514.34
2022-09-06T11:06:43.044Z,101511.04
2022-09-06T11:09:53.429Z,101509.08
2022-09-06T11:12:39.745Z,101509.22
2022-09-06T11:15:11.877Z,101506.30
2022-09-06T11:18:10.455Z,101507.70
2022-09-06T11:20:44.686Z,101509.67
2022-09-06T11:23:32.792Z,101507.61
2022-09-06T11:26:36.455Z,101501.84
2022-09-06T11:29:10.550Z,101492.09
2022-09-06T11:34:53.633Z,101485.48
2022-09-06T11:37:36.893Z,101486.43
2022-09-06T11:42:51.405Z,101490.08
2022-09-06T11:45:39.738Z,101488.48
2022-09-06T11:48:33.973Z,101487.28
2022-09-06T11:51:06.779Z,101483.15
2022-09-06T11:53:57.746Z,101482.77
2022-09-06T11:56:40.757Z,101485.05
2022-09-06T11:59:15.927Z,101482.23
2022-09-06T12:02:02.368Z,101482.05
2022-09-06T12:05:00.962Z,101482.73
2022-09-06T12:07:31.246Z,101481.60
2022-09-06T12:10:22.885Z,101482.07
2022-09-06T12:12:52.638Z,101477.73
2022-09-06T12:15:52.358Z,101474.49
2022-09-06T12:18:47.239Z,101478.00
2022-09-06T12:21:40.203Z,101473.84
2022-09-06T12:24:28.764Z,101471.21
2022-09-06T12:27:22.676Z,101472.63
2022-09-06T12:30:12.180Z,101464.59
2022-09-06T12:32:51.910Z,101461.75
2022-09-06T12:38:17.195Z,101461.08
2022-09-06T12:40:58.936Z,101455.54
2022-09-06T12:43:27.134Z,101453.29
2022-09-06T12:45:54.066Z,101449.98
2022-09-06T12:48:33.589Z,101446.86
2022-09-06T12:51:19.398Z,101449.86
2022-09-06T12:54:04.259Z,101448.93
2022-09-06T12:56:34.308Z,101446.58
2022-09-06T12:59:21.336Z,101443.17
2022-09-06T13:02:30.358Z,101441.30
2022-09-06T13:05:07.096Z,101434.16
2022-09-06T13:07:41.020Z,101431.86
2022-09-06T13:10:09.521Z,101419.70
2022-09-06T13:12:44.340Z,101418.89
2022-09-06T13:15:19.659Z,101416.15
2022-09-06T13:17:47.433Z,101419.40
2022-09-06T13:20:30.475Z,101417.05
2022-09-06T13:23:19.789Z,101417.58
2022-09-06T13:25:50.305Z,101410.84
2022-09-06T13:28:31.818Z,101417.98
2022-09-06T13:31:08.382Z,101416.99
2022-09-06T13:33:37.807Z,101404.26
2022-09-06T13:36:28.003Z,101401.17
2022-09-06T13:38:55.759Z,101397.98
2022-09-06T13:41:25.223Z,101395.14
2022-09-06T13:44:04.456Z,101398.33
2022-09-06T13:46:33.361Z,101397.88
2022-09-06T13:49:00.636Z,101403.81
2022-09-06T13:51:28.053Z,101398.09
2022-09-06T13:54:14.202Z,101405.42
2022-09-06T13:56:44.650Z,101405.60
2022-09-06T13:59:12.784Z,101407.95
2022-09-06T14:01:43.014Z,101408.09
2022-09-06T14:04:21.311Z,101409.38
2022-09-06T14:06:49.352Z,101409.37
2022-09-06T14:09:16.180Z,101407.12
2022-09-06T14:11:47.480Z,101405.66
2022-09-06T14:14:17.664Z,101407.39
2022-09-06T14:16:46.047Z,101405.35
2022-09-06T14:19:13.231Z,101399.52
2022-09-06T14:21:40.378Z,101402.95
2022-09-06T14:24:07.927Z,101401.98
2022-09-06T14:26:37.022Z,101396.73
2022-09-06T14:29:04.689Z,101396.56
2022-09-06T14:31:34.712Z,101390.83
2022-09-06T14:34:02.618Z,101389.45
2022-09-06T14:36:32.234Z,101382.94
2022-09-06T14:39:01.515Z,101382.40
2022-09-06T14:41:28.971Z,101376.78
2022-09-06T14:43:58.688Z,101376.54
2022-09-06T14:46:28.179Z,101370.91
2022-09-06T14:49:02.079Z,101373.19
2022-09-06T14:51:30.626Z,101374.14
2022-09-06T14:54:07.081Z,101372.05
2022-09-06T14:56:34.607Z,101371.02
2022-09-06T14:59:01.739Z,101374.02
2022-09-06T15:01:38.143Z,101375.69
2022-09-06T15:04:09.267Z,101373.34
2022-09-06T15:06:40.303Z,101368.64
2022-09-06T15:09:08.162Z,101370.64
2022-09-06T15:11:39.387Z,101368.56
2022-09-06T15:14:13.393Z,101367.99
2022-09-06T15:16:40.153Z,101365.52
2022-09-06T15:19:08.956Z,101361.77
2022-09-06T15:21:36.334Z,101358.87
2022-09-06T15:24:07.324Z,101355.14
2022-09-06T15:26:36.692Z,101347.50
2022-09-06T15:29:04.049Z,101347.00
2022-09-06T15:31:34.097Z,101346.45
2022-09-06T15:34:02.873Z,101348.34
2022-09-06T15:36:30.292Z,101344.98
2022-09-06T15:39:01.153Z,101348.67
2022-09-06T15:41:32.361Z,101339.46
2022-09-06T15:44:02.891Z,101330.96
2022-09-06T15:46:50.988Z,101329.23
2022-09-06T15:49:28.165Z,101327.55
2022-09-06T15:51:59.516Z,101326.55
2022-09-06T15:54:45.977Z,101326.70
2022-09-06T15:57:16.167Z,101328.48
2022-09-06T15:59:43.481Z,101328.16
2022-09-06T16:02:11.466Z,101328.98
2022-09-06T16:04:38.432Z,101331.33
2022-09-06T16:07:06.224Z,101325.11
2022-09-06T16:09:33.281Z,101324.58
2022-09-06T16:12:00.043Z,101324.50
2022-09-06T16:14:28.165Z,101323.67
2022-09-06T16:16:56.298Z,101326.67
2022-09-06T16:19:26.191Z,101326.39
2022-09-06T16:21:53.609Z,101327.33
2022-09-06T16:24:21.477Z,101324.20
2022-09-06T16:26:48.701Z,101327.27
2022-09-06T16:29:18.367Z,101321.75
2022-09-06T16:31:46.932Z,101320.74
2022-09-06T16:34:15.432Z,101318.27
2022-09-06T16:36:42.412Z,101315.48
2022-09-06T16:39:10.731Z,101320.14
2022-09-06T16:41:44.459Z,101327.68
2022-09-06T16:44:18.463Z,101327.73
2022-09-06T16:46:48.006Z,101331.58
2022-09-06T16:49:17.582Z,101331.20
2022-09-06T16:51:46.445Z,101330.48
2022-09-06T16:54:15.429Z,101331.41
2022-09-06T16:56:43.321Z,101325.73
2022-09-06T16:59:12.153Z,101322.33
2022-09-06T17:01:45.078Z,101321.67
2022-09-06T17:04:13.106Z,101315.29
2022-09-06T17:06:44.663Z,101313.00
2022-09-06T17:09:16.297Z,101308.61
2022-09-06T17:11:43.228Z,101310.10
2022-09-06T17:14:10.116Z,101309.45
2022-09-06T17:16:55.762Z,101304.17
2022-09-06T17:19:22.746Z,101303.83
2022-09-06T17:21:49.459Z,101304.10
2022-09-06T17:24:16.597Z,101306.06
2022-09-06T17:26:43.347Z,101305.91
2022-09-06T17:29:10.807Z,101307.68
2022-09-06T17:31:38.241Z,101308.08
2022-09-06T17:34:06.769Z,101307.60
2022-09-06T17:36:34.626Z,101305.55
2022-09-06T17:39:08.671Z,101306.54
2022-09-06T17:41:43.052Z,101305.78
2022-09-06T17:44:13.150Z,101305.25
2022-09-06T17:46:57.078Z,101305.12
2022-09-06T17:49:28.479Z,101311.23
2022-09-06T17:51:55.218Z,101309.55
2022-09-06T17:54:22.354Z,101314.00
2022-09-06T17:56:49.059Z,101312.53
2022-09-06T17:59:15.971Z,101316.54
2022-09-06T18:01:45.628Z,101316.70
2022-09-06T18:04:14.428Z,101319.79
2022-09-06T18:06:43.379Z,101324.73
2022-09-06T18:09:15.837Z,101324.23
2022-09-06T18:11:45.950Z,101324.27
2022-09-06T18:14:17.495Z,101325.52
2022-09-06T18:16:47.240Z,101327.28
2022-09-06T18:19:15.462Z,101328.99
2022-09-06T18:21:42.641Z,101328.55
2022-09-06T18:24:13.615Z,101331.28
2022-09-06T18:26:41.765Z,101330.21
2022-09-06T18:29:13.070Z,101327.75
2022-09-06T18:31:41.305Z,101331.55
2022-09-06T18:34:09.241Z,101331.05
2022-09-06T18:36:38.344Z,101334.13
2022-09-06T18:39:06.614Z,101333.50
2022-09-06T18:41:53.593Z,101333.15
2022-09-06T18:44:21.770Z,101328.36
2022-09-06T18:46:49.229Z,101326.24
2022-09-06T18:49:16.989Z,101324.38
2022-09-06T18:51:44.660Z,101320.63
2022-09-06T18:54:11.996Z,101323.69
2022-09-06T18:56:38.779Z,101324.47
2022-09-06T18:59:07.165Z,101322.17
2022-09-06T19:01:35.240Z,101324.89
2022-09-06T19:04:05.163Z,101325.96
2022-09-06T19:06:34.843Z,101330.45
2022-09-06T19:09:07.189Z,101328.55
2022-09-06T19:11:34.889Z,101327.80
2022-09-06T19:14:02.428Z,101329.44
2022-09-06T19:16:31.578Z,101325.38
2022-09-06T19:19:09.961Z,101326.48
2022-09-06T19:21:41.759Z,101328.84
2022-09-06T19:24:11.934Z,101327.29
2022-09-06T19:26:43.315Z,101331.93
2022-09-06T19:29:18.748Z,101334.31
2022-09-06T19:31:47.444Z,101335.27
2022-09-06T19:34:15.945Z,101335.11
2022-09-06T19:36:44.909Z,101332.45
2022-09-06T19:39:15.492Z,101330.55
2022-09-06T19:41:47.658Z,101327.39
2022-09-06T19:44:17.246Z,101326.89
2022-09-06T19:46:46.756Z,101323.14
2022-09-06T19:49:19.053Z,101319.45
2022-09-06T19:51:48.849Z,101316.84
2022-09-06T19:54:16.858Z,101317.35
2022-09-06T19:56:44.915Z,101314.70
2022-09-06T19:59:14.195Z,101314.02
2022-09-06T20:01:44.405Z,101313.85
2022-09-06T20:04:13.803Z,101313.16
2022-09-06T20:06:41.211Z,101317.65
2022-09-06T20:09:10.250Z,101318.90
2022-09-06T20:11:39.391Z,101318.58
2022-09-06T20:14:06.836Z,101323.41
2022-09-06T20:16:35.282Z,101322.22
2022-09-06T20:19:05.031Z,101319.90
2022-09-06T20:21:32.103Z,101318.14
2022-09-06T20:23:59.692Z,101314.04
2022-09-06T20:26:30.372Z,101313.02
2022-09-06T20:29:00.453Z,101309.13
2022-09-06T20:31:30.821Z,101306.11
2022-09-06T20:34:04.235Z,101309.54
2022-09-06T20:36:31.498Z,101311.55
2022-09-06T20:38:58.329Z,101305.15
2022-09-06T20:41:27.096Z,101306.90
2022-09-06T20:43:57.122Z,101303.89
2022-09-06T20:46:30.581Z,101303.55
2022-09-06T20:49:01.903Z,101300.57
2022-09-06T20:51:28.641Z,101295.64
2022-09-06T20:54:01.295Z,101289.95
2022-09-06T20:56:33.803Z,101289.45
2022-09-06T20:59:03.914Z,101283.44
2022-09-06T21:01:35.845Z,101282.56
2022-09-06T21:04:06.606Z,101282.60
2022-09-06T21:06:37.125Z,101282.79
2022-09-06T21:09:08.841Z,101273.95
2022-09-06T21:11:36.572Z,101273.47
2022-09-06T21:14:04.755Z,101274.95
2022-09-06T21:16:32.354Z,101272.48
2022-09-06T21:19:06.367Z,101270.71
2022-09-06T21:21:35.038Z,101267.70
2022-09-06T21:24:04.381Z,101262.45
2022-09-06T21:26:31.783Z,101264.43
2022-09-06T21:28:59.126Z,101266.20
2022-09-06T21:31:31.071Z,101263.41
2022-09-06T21:34:03.247Z,101263.65
2022-09-06T21:36:35.182Z,101264.36
2022-09-06T21:39:12.686Z,101260.98
2022-09-06T21:41:42.392Z,101257.97
2022-09-06T21:44:10.464Z,101259.95
2022-09-06T21:46:39.847Z,101261.91
2022-09-06T21:49:10.931Z,101264.06
2022-09-06T21:51:38.760Z,101259.30
2022-09-06T21:54:06.767Z,101255.40
2022-09-06T21:56:37.703Z,101253.98
2022-09-06T21:59:06.521Z,101249.92
2022-09-06T22:01:36.262Z,101249.05
2022-09-06T22:04:04.433Z,101238.20
2022-09-06T22:06:33.820Z,101231.27
2022-09-06T22:09:07.616Z,101228.25
2022-09-06T22:11:41.143Z,101221.14
2022-09-06T22:14:11.349Z,101215.44
2022-09-06T22:16:40.548Z,101214.36
2022-09-06T22:19:09.723Z,101217.91
2022-09-06T22:21:38.529Z,101220.75
2022-09-06T22:24:09.988Z,101220.06
2022-09-06T22:26:39.912Z,101217.77
2022-09-06T22:29:10.709Z,101216.36
2022-09-06T22:31:38.048Z,101213.14
2022-09-06T22:34:05.945Z,101210.49
2022-09-06T22:36:33.688Z,101209.08
2022-09-06T22:39:00.484Z,101212.48
2022-09-06T22:41:30.881Z,101206.27
2022-09-06T22:44:00.856Z,101208.58
2022-09-06T22:46:29.009Z,101207.00
2022-09-06T22:48:55.976Z,101203.27
2022-09-06T22:51:23.106Z,101203.98
2022-09-06T22:53:50.553Z,101196.52
2022-09-06T22:56:17.387Z,101195.30
2022-09-06T22:58:44.224Z,101194.44
2022-09-06T23:01:17.067Z,101193.91
2022-09-06T23:03:44.580Z,101195.89
2022-09-06T23:06:11.537Z,101185.80
2022-09-06T23:08:40.704Z,101182.63
2022-09-06T23:11:14.657Z,101179.26
2022-09-06T23:13:46.127Z,101176.42
2022-09-06T23:16:17.549Z,101173.77
2022-09-06T23:18:46.072Z,101175.55
2022-09-06T23:21:17.234Z,101176.47
2022-09-06T23:23:44.806Z,101180.92
2022-09-06T23:26:19.185Z,101180.40
2022-09-06T23:28:46.367Z,101187.49
2022-09-06T23:31:15.580Z,101192.66
2022-09-06T23:33:42.977Z,101196.21
2022-09-06T23:36:14.620Z,101204.91
2022-09-06T23:38:42.697Z,101204.91
2022-09-06T23:41:11.165Z,101204.05
2022-09-06T23:43:40.370Z,101198.89
2022-09-06T23:46:08.789Z,101196.61
2022-09-06T23:48:36.233Z,101197.86
2022-09-06T23:51:04.354Z,101200.00
2022-09-06T23:53:31.965Z,101208.88
2022-09-06T23:55:59.096Z,101207.83
2022-09-06T23:58:26.430Z,101204.80
